Arcadia Highway — 3FQT4 — position and weather

sailwx.info

Track history (hours):
 
Tides and Currents Weather Stations Pressure Air Temp Water Temp Dewpoint Dewpoint Depression Visibility Wind Speed Wind Dir Waves Ship Positions

Arcadia Highway

Last reported at 2016-Jun-09 03:32 UTC. Time now 2016-Jun-26 04:48 UTC.
Position N 01°54' E 102°24'.
Warning: this ship's position is 17 days out of date.

Length 179 m; draft 7.8 m.

Type: Cargo ship. MMSI: 354342000.

Date/timePositionNaut miles runAvg speedWind from/ knotsBaromVisibWave heightAir tempDewpointWater temp
2016-Jun-09 03:32N 01°54' E 102°24'1413.7
2016-Jun-09 02:32N 01°48' E 102°36'1414.4
2016-Jun-09 01:33N 01°43' E 102°49'6212.1
2016-Jun-08 20:29N 01°16' E 103°45'1 0.4
2016-Jun-08 18:30N 01°17' E 103°45'0 0.0
2016-Jun-08 17:30N 01°17' E 103°45'0 0.0
2016-Jun-08 16:30N 01°17' E 103°45'0 0.0
2016-Jun-08 14:24N 01°17' E 103°45'0 0.0
2016-Jun-08 13:30N 01°17' E 103°45'0 0.0
2016-Jun-08 12:30N 01°17' E 103°45'0 0.4
2016-Jun-08 11:33N 01°17' E 103°45'5 4.8
2016-Jun-08 10:34N 01°13' E 103°48'9 8.6
2016-Jun-08 09:34N 01°15' E 103°56'7 7.2
2016-Jun-08 08:33N 01°16' E 104°04'  
Track history (hours):
 
Tides and Currents Weather Stations Pressure Air Temp Water Temp Dewpoint Dewpoint Depression Visibility Wind Speed Wind Dir Waves Ship Positions

Arcadia Highway

Last reported at 2016-Jun-09 03:32 UTC. Time now 2016-Jun-26 04:48 UTC.
Position N 01°54' E 102°24'.
Warning: this ship's position is 17 days out of date.

Length 179 m; draft 7.8 m.

Type: Cargo ship. MMSI: 354342000.

Date/timePositionNaut miles runAvg speedWind from/ knotsBaromVisibWave heightAir tempDewpointWater temp
2016-Jun-09 03:32N 01°54' E 102°24'1413.7
2016-Jun-09 02:32N 01°48' E 102°36'1414.4
2016-Jun-09 01:33N 01°43' E 102°49'6212.1
2016-Jun-08 20:29N 01°16' E 103°45'1 0.4
2016-Jun-08 18:30N 01°17' E 103°45'0 0.0
2016-Jun-08 17:30N 01°17' E 103°45'0 0.0
2016-Jun-08 16:30N 01°17' E 103°45'0 0.0
2016-Jun-08 14:24N 01°17' E 103°45'0 0.0
2016-Jun-08 13:30N 01°17' E 103°45'0 0.0
2016-Jun-08 12:30N 01°17' E 103°45'0 0.4
2016-Jun-08 11:33N 01°17' E 103°45'5 4.8
2016-Jun-08 10:34N 01°13' E 103°48'9 8.6
2016-Jun-08 09:34N 01°15' E 103°56'7 7.2
2016-Jun-08 08:33N 01°16' E 104°04'  

Dump ship's entire track history